Time;durP1;ratioP1;P1;durP2;ratioP2;P2;SDS_P1;SDS_P2;PMS_P1;PMS_P2;Temp;Humidity;BMP_temperature;BMP_pressure;BME280_temperature;BME280_humidity;BME280_pressure;Samples;Min_cycle;Max_cycle;Signal;HPM_P1;HPM_P2
2022/12/24 00:00:09;;;;;;;28.38;10.00;;;;;;;9.04;100.00;100779.69;5125129;29;20420;-63
2022/12/24 00:02:40;;;;;;;19.13;7.35;;;;;;;9.09;100.00;100774.38;5106730;29;20066;-63
2022/12/24 00:05:10;;;;;;;16.67;7.57;;;;;;;9.06;100.00;100773.00;5125533;29;20094;-64
2022/12/24 00:07:40;;;;;;;22.85;9.60;;;;;;;9.02;100.00;100771.84;5125555;29;20024;-63
2022/12/24 00:10:11;;;;;;;23.40;9.75;;;;;;;8.98;100.00;100778.78;5125518;29;20028;-64
2022/12/24 00:12:41;;;;;;;20.05;9.98;;;;;;;8.79;100.00;100754.03;5125160;29;20023;-63
2022/12/24 00:15:11;;;;;;;14.35;7.65;;;;;;;8.95;100.00;100776.59;5125374;29;20023;-63
2022/12/24 00:17:42;;;;;;;29.30;9.82;;;;;;;8.92;100.00;100785.19;5125568;29;20054;-63
2022/12/24 00:20:12;;;;;;;21.65;6.35;;;;;;;8.90;100.00;100781.94;5125324;29;20030;-64
2022/12/24 00:22:42;;;;;;;27.50;8.95;;;;;;;8.82;100.00;100766.16;5107628;29;20024;-64
2022/12/24 00:25:13;;;;;;;19.10;8.07;;;;;;;8.83;100.00;100786.66;5125142;29;20026;-63
2022/12/24 00:27:43;;;;;;;22.35;8.63;;;;;;;8.77;100.00;100787.63;5125249;29;20027;-64
2022/12/24 00:30:14;;;;;;;17.48;8.80;;;;;;;8.61;100.00;100781.22;5125570;29;20074;-64
2022/12/24 00:32:44;;;;;;;23.20;8.95;;;;;;;8.67;100.00;100796.34;5125057;29;20019;-63
2022/12/24 00:35:15;;;;;;;21.23;8.95;;;;;;;8.64;100.00;100787.97;5108022;29;20035;-64
2022/12/24 00:37:48;;;;;;;17.25;8.43;;;;;;;8.65;100.00;100817.34;5124318;29;20399;-63
2022/12/24 00:40:19;;;;;;;25.10;11.20;;;;;;;8.61;100.00;100824.28;5125466;29;20019;-63
2022/12/24 00:42:49;;;;;;;14.93;6.78;;;;;;;8.62;100.00;100812.44;5124759;29;20045;-63
2022/12/24 00:45:19;;;;;;;20.08;8.77;;;;;;;8.69;100.00;100817.66;5124804;29;20074;-64
2022/12/24 00:47:50;;;;;;;41.80;10.57;;;;;;;8.64;100.00;100823.78;5125200;29;20027;-63
2022/12/24 00:50:20;;;;;;;36.17;9.38;;;;;;;8.62;100.00;100822.41;5125282;29;20019;-63
2022/12/24 00:52:50;;;;;;;23.45;9.85;;;;;;;8.54;100.00;100820.09;5124909;29;20027;-63
2022/12/24 00:55:21;;;;;;;24.60;7.68;;;;;;;8.54;100.00;100820.09;5125194;29;20395;-64
2022/12/24 00:57:51;;;;;;;26.88;8.52;;;;;;;8.51;100.00;100834.84;5107593;29;20025;-64
2022/12/24 01:00:22;;;;;;;31.85;9.88;;;;;;;8.58;100.00;100843.59;5125125;29;20490;-64
2022/12/24 01:02:52;;;;;;;24.40;8.70;;;;;;;8.71;100.00;100845.97;5124312;29;20027;-63
2022/12/24 01:05:23;;;;;;;12.57;8.82;;;;;;;8.80;100.00;100844.50;5125137;29;20103;-62
2022/12/24 01:07:53;;;;;;;38.22;10.65;;;;;;;8.83;100.00;100835.13;5124133;28;20049;-62
2022/12/24 01:10:23;;;;;;;39.38;10.30;;;;;;;8.66;100.00;100812.78;5124802;29;20083;-63
2022/12/24 01:12:54;;;;;;;28.13;9.45;;;;;;;8.76;100.00;100839.84;5124190;29;20101;-63
2022/12/24 01:15:24;;;;;;;26.50;9.82;;;;;;;8.87;100.00;100843.53;5123238;29;20062;-62
2022/12/24 01:17:55;;;;;;;32.05;10.15;;;;;;;8.91;100.00;100840.09;5124961;29;20027;-62
2022/12/24 01:20:30;;;;;;;19.95;8.48;;;;;;;8.94;100.00;100841.50;5124746;29;20455;-63
2022/12/24 01:23:00;;;;;;;16.42;8.38;;;;;;;8.98;100.00;100839.91;5123932;29;20425;-63
2022/12/24 01:25:31;;;;;;;19.13;8.38;;;;;;;8.98;100.00;100845.31;5123937;29;20023;-63
2022/12/24 01:28:01;;;;;;;21.83;8.63;;;;;;;8.83;100.00;100818.16;5124386;29;20484;-63
2022/12/24 01:30:31;;;;;;;19.50;8.10;;;;;;;8.95;100.00;100859.28;5124604;29;20033;-63
2022/12/24 01:33:02;;;;;;;24.27;8.70;;;;;;;8.96;100.00;100858.19;5123930;29;20491;-63
2022/12/24 01:35:32;;;;;;;22.25;8.30;;;;;;;8.90;100.00;100867.28;5123870;29;20031;-63
2022/12/24 01:38:02;;;;;;;15.35;7.70;;;;;;;8.93;100.00;100874.88;5124173;29;20023;-63
2022/12/24 01:43:23;;;;;;;16.35;6.60;;;;;;;8.96;100.00;100875.19;5123899;29;20041;-63
2022/12/24 01:45:53;;;;;;;9.70;8.00;;;;;;;8.99;100.00;100884.66;5122553;29;20023;-63
2022/12/24 01:48:30;;;;;;;20.33;8.57;;;;;;;8.97;100.00;100894.84;5124018;29;20039;-63
2022/12/24 01:51:12;;;;;;;30.52;8.80;;;;;;;8.96;100.00;100891.34;5123984;29;20094;-64
2022/12/24 01:53:48;;;;;;;27.70;8.00;;;;;;;8.95;100.00;100884.31;5123471;29;20038;-63
2022/12/24 01:56:19;;;;;;;14.60;8.63;;;;;;;8.88;100.00;100877.47;5123796;29;20046;-63
2022/12/24 01:58:56;;;;;;;15.15;6.50;;;;;;;8.93;100.00;100888.34;5106865;29;20499;-63
2022/12/24 02:01:27;;;;;;;19.40;8.38;;;;;;;8.95;100.00;100891.59;5124205;29;20024;-64
2022/12/24 02:03:58;;;;;;;12.20;7.30;;;;;;;8.92;100.00;100882.13;5123177;29;20042;-66
2022/12/24 02:06:28;;;;;;;11.90;6.93;;;;;;;8.95;100.00;100897.00;5123552;29;20062;-63
2022/12/24 02:08:58;;;;;;;13.90;7.03;;;;;;;8.95;100.00;100897.00;5123559;29;20029;-64
2022/12/24 02:11:29;;;;;;;18.77;6.88;;;;;;;8.97;100.00;100894.84;5123549;29;20055;-64
2022/12/24 02:14:01;;;;;;;16.90;6.13;;;;;;;8.98;100.00;100897.31;5123475;29;20240;-64
2022/12/24 02:16:44;;;;;;;9.43;6.18;;;;;;;9.00;100.00;100899.75;5123615;29;20507;-63
2022/12/24 02:19:30;;;;;;;9.85;6.93;;;;;;;8.98;100.00;100908.06;5124411;28;20114;-63
2022/12/24 02:22:13;;;;;;;17.08;6.82;;;;;;;8.96;100.00;100912.06;5127174;29;20039;-63
2022/12/24 02:25:03;;;;;;;10.10;6.35;;;;;;;8.96;100.00;100906.69;5127159;29;20070;-64
2022/12/24 02:27:44;;;;;;;15.07;4.40;;;;;;;9.00;100.00;100918.59;5125915;29;20568;-63
2022/12/24 02:30:28;;;;;;;9.55;5.20;;;;;;;8.97;100.00;100919.09;5127355;29;20031;-64
2022/12/24 02:33:11;;;;;;;11.30;6.03;;;;;;;8.99;100.00;100916.97;5126892;29;20027;-64
2022/12/24 02:35:51;;;;;;;13.05;5.50;;;;;;;8.96;100.00;100922.84;5125630;29;20071;-64
2022/12/24 02:38:38;;;;;;;15.85;6.82;;;;;;;8.81;100.00;100907.25;5127304;29;20038;-64
2022/12/24 02:41:23;;;;;;;12.55;5.75;;;;;;;8.80;100.00;100922.59;5109780;29;20027;-64
2022/12/24 02:43:56;;;;;;;15.15;7.57;;;;;;;8.75;100.00;100927.88;5126558;29;20120;-65
2022/12/24 02:46:30;;;;;;;13.88;6.25;;;;;;;8.71;100.00;100929.41;5126896;29;20086;-65
2022/12/24 02:49:01;;;;;;;16.75;8.02;;;;;;;8.73;100.00;100931.88;5126934;29;20081;-65
2022/12/24 02:51:31;;;;;;;22.55;9.10;;;;;;;8.72;100.00;100933.75;5127125;29;20094;-66
2022/12/24 02:54:02;;;;;;;7.82;5.20;;;;;;;8.73;100.00;100937.25;5126410;29;20027;-65
2022/12/24 02:56:51;;;;;;;20.77;7.57;;;;;;;8.78;100.00;100935.47;5127195;29;20054;-65
2022/12/24 02:59:36;;;;;;;17.25;7.60;;;;;;;8.75;100.00;100941.34;5109602;29;20479;-68
2022/12/24 03:02:36;;;;;;;14.77;6.68;;;;;;;8.69;100.00;100934.22;5126830;29;20031;-65
2022/12/24 03:05:35;;;;;;;20.58;8.48;;;;;;;8.66;100.00;100939.31;5126756;29;20023;-65
2022/12/24 03:08:18;;;;;;;20.10;8.65;;;;;;;8.70;100.00;100940.44;5127111;29;20029;-65
2022/12/24 03:11:04;;;;;;;13.27;7.32;;;;;;;8.68;100.00;100937.16;5126240;29;20073;-64
2022/12/24 03:13:34;;;;;;;18.55;6.75;;;;;;;8.73;100.00;100953.41;5126923;29;20431;-65
2022/12/24 03:16:09;;;;;;;23.55;8.57;;;;;;;8.66;100.00;100950.84;5126835;29;20027;-65
2022/12/24 03:18:43;;;;;;;29.33;8.75;;;;;;;8.55;100.00;100953.63;5126868;29;20069;-65
2022/12/24 03:21:25;;;;;;;28.67;8.13;;;;;;;8.43;100.00;100954.47;5134576;23;20042;-71
2022/12/24 03:23:56;;;;;;;26.45;7.80;;;;;;;8.23;100.00;100927.13;5096003;29;20024;-70
2022/12/24 03:26:29;;;;;;;22.70;10.20;;;;;;;8.30;100.00;100953.91;5106228;29;20046;-70
2022/12/24 03:29:07;;;;;;;14.60;7.95;;;;;;;8.23;100.00;100959.41;5106055;29;20039;-70
2022/12/24 03:31:46;;;;;;;13.80;8.07;;;;;;;8.19;100.00;100969.00;5105162;29;20024;-69
2022/12/24 03:34:18;;;;;;;34.13;8.60;;;;;;;7.95;100.00;100944.03;5088850;29;20039;-70
2022/12/24 03:36:48;;;;;;;22.08;7.90;;;;;;;8.12;100.00;100977.22;5106062;29;20464;-69
2022/12/24 03:39:19;;;;;;;18.15;8.98;;;;;;;8.19;100.00;100976.28;5105673;29;20070;-70
2022/12/24 03:41:50;;;;;;;21.88;8.27;;;;;;;8.23;100.00;100967.50;5105792;29;20031;-70
2022/12/24 03:44:20;;;;;;;17.02;8.32;;;;;;;8.37;100.00;100965.41;5106142;29;20083;-70
2022/12/24 03:46:50;;;;;;;28.10;8.73;;;;;;;8.45;100.00;100975.75;5105970;29;20396;-69
2022/12/24 03:49:21;;;;;;;19.23;7.10;;;;;;;8.49;100.00;100974.22;5105954;29;20059;-69
2022/12/24 03:51:51;;;;;;;10.25;6.45;;;;;;;8.56;100.00;100991.06;5088313;29;20027;-69
2022/12/24 03:54:21;;;;;;;18.25;7.10;;;;;;;8.55;100.00;100972.47;5105290;29;20023;-70
2022/12/24 03:56:52;;;;;;;19.15;9.82;;;;;;;8.64;100.00;100987.19;5105763;29;20110;-69
2022/12/24 03:59:22;;;;;;;15.73;8.25;;;;;;;8.67;100.00;100983.97;5105858;29;20020;-70
2022/12/24 04:01:53;;;;;;;18.17;10.13;;;;;;;8.69;100.00;100979.19;5105165;29;20027;-69
2022/12/24 04:04:23;;;;;;;18.38;7.45;;;;;;;8.74;100.00;100984.66;5088206;29;20492;-69
2022/12/24 04:06:54;;;;;;;21.85;7.85;;;;;;;8.74;100.00;100979.28;5088243;29;20082;-69
2022/12/24 04:09:24;;;;;;;10.68;6.20;;;;;;;8.75;100.00;100983.59;5105511;29;20111;-70
2022/12/24 04:11:55;;;;;;;12.98;6.55;;;;;;;8.76;100.00;100990.63;5105166;29;20456;-69
2022/12/24 04:14:25;;;;;;;17.08;7.65;;;;;;;8.79;100.00;100990.97;5106564;29;20027;-70
2022/12/24 04:16:55;;;;;;;18.02;7.38;;;;;;;8.59;100.00;100970.94;5087960;29;20095;-70
2022/12/24 04:19:26;;;;;;;15.52;8.85;;;;;;;8.64;100.00;100987.19;5105355;29;20065;-69
2022/12/24 04:21:56;;;;;;;22.02;7.75;;;;;;;8.71;100.00;100993.22;5104445;29;20032;-70
2022/12/24 04:24:26;;;;;;;15.23;7.95;;;;;;;8.75;100.00;101000.56;5105193;29;20020;-70
2022/12/24 04:26:57;;;;;;;15.73;7.03;;;;;;;8.80;100.00;101005.25;5088223;29;20030;-70
2022/12/24 04:29:27;;;;;;;23.80;8.45;;;;;;;8.81;100.00;100998.81;5104758;29;20028;-70
2022/12/24 04:31:58;;;;;;;13.40;7.72;;;;;;;8.86;100.00;100995.41;5104765;29;20386;-69
2022/12/24 04:34:28;;;;;;;14.93;7.13;;;;;;;8.85;100.00;100999.16;5105068;29;20500;-70
2022/12/24 04:36:58;;;;;;;18.42;8.02;;;;;;;8.88;100.00;101010.25;5087966;29;20028;-70
2022/12/24 04:39:29;;;;;;;16.35;8.00;;;;;;;8.92;100.00;101005.22;5104913;29;20473;-70
2022/12/24 04:41:59;;;;;;;15.77;8.20;;;;;;;8.92;100.00;101006.03;5104184;29;20391;-69
2022/12/24 04:44:30;;;;;;;16.20;7.07;;;;;;;8.91;100.00;101011.66;5105146;29;20024;-70
2022/12/24 04:47:00;;;;;;;10.18;7.03;;;;;;;8.85;100.00;101005.34;5105410;29;20024;-69
2022/12/24 04:49:31;;;;;;;19.75;8.95;;;;;;;8.87;100.00;101013.19;5104841;29;20068;-70
2022/12/24 04:52:01;;;;;;;14.18;7.85;;;;;;;8.91;100.00;101019.72;5087204;29;20031;-69
2022/12/24 04:54:31;;;;;;;16.27;6.82;;;;;;;8.93;100.00;101010.34;5087634;29;20023;-70
2022/12/24 04:57:02;;;;;;;19.58;8.25;;;;;;;8.96;100.00;101014.41;5104441;29;20027;-69
2022/12/24 04:59:32;;;;;;;25.45;7.85;;;;;;;8.94;100.00;101017.38;5104360;29;20031;-69
2022/12/24 05:02:02;;;;;;;24.15;8.82;;;;;;;8.94;100.00;101020.06;5104074;29;20034;-69
2022/12/24 05:04:33;;;;;;;11.93;7.90;;;;;;;8.97;100.00;101021.44;5104398;29;20063;-71
2022/12/24 05:07:03;;;;;;;18.25;10.70;;;;;;;8.97;100.00;101016.06;5104381;29;20103;-69
2022/12/24 05:09:34;;;;;;;24.13;10.02;;;;;;;8.97;100.00;101013.34;5104591;29;20035;-69
2022/12/24 05:12:04;;;;;;;17.45;9.52;;;;;;;8.85;100.00;101001.84;5104035;29;20086;-69
2022/12/24 05:14:35;;;;;;;20.98;8.10;;;;;;;9.00;100.00;101029.03;5087061;29;20028;-69
2022/12/24 05:17:05;;;;;;;22.80;7.63;;;;;;;8.97;100.00;101033.03;5103859;29;20480;-69
2022/12/24 05:19:35;;;;;;;23.45;8.45;;;;;;;8.86;100.00;101022.31;5104118;29;20042;-69
2022/12/24 05:27:45;;;;;;;33.33;9.97;;;;;;;8.54;100.00;101036.25;5104257;29;20381;-69
2022/12/24 05:30:16;;;;;;;25.70;8.73;;;;;;;8.50;100.00;101034.25;5103966;29;20019;-69
2022/12/24 05:32:46;;;;;;;17.60;9.05;;;;;;;8.44;100.00;101036.84;5103580;29;20388;-70
2022/12/24 05:35:16;;;;;;;16.63;8.43;;;;;;;8.32;100.00;101038.75;5103865;29;20028;-70
2022/12/24 05:37:47;;;;;;;19.40;8.80;;;;;;;8.23;100.00;101040.13;5104329;29;20016;-69
2022/12/24 05:40:17;;;;;;;16.48;9.40;;;;;;;8.16;100.00;101041.28;5086776;29;20028;-69
2022/12/24 05:42:49;;;;;;;25.65;10.13;;;;;;;8.04;100.00;101031.38;5103444;29;20027;-70
2022/12/24 05:45:19;;;;;;;16.73;8.50;;;;;;;8.18;100.00;101052.63;5103738;29;20032;-69
2022/12/24 05:47:50;;;;;;;24.98;10.10;;;;;;;8.11;100.00;101050.88;5104104;29;20024;-69
2022/12/24 05:50:20;;;;;;;20.02;7.88;;;;;;;8.05;100.00;101056.41;5086748;29;20020;-69
2022/12/24 05:52:50;;;;;;;22.48;10.02;;;;;;;7.96;100.00;101058.63;5103323;29;20408;-69
2022/12/24 05:55:21;;;;;;;36.38;12.23;;;;;;;7.89;100.00;101065.97;5109477;29;20028;-69
2022/12/24 05:57:51;;;;;;;27.33;8.88;;;;;;;7.87;100.00;101061.88;5110304;29;20114;-70
2022/12/24 06:00:21;;;;;;;14.55;9.13;;;;;;;7.85;100.00;101072.88;5110403;29;20032;-69
2022/12/24 06:02:52;;;;;;;18.55;8.25;;;;;;;7.86;100.00;101073.69;5092678;29;20027;-70
2022/12/24 06:05:22;;;;;;;25.65;9.57;;;;;;;7.93;100.00;101069.84;5110483;29;20468;-70
2022/12/24 06:07:53;;;;;;;27.40;9.80;;;;;;;7.98;100.00;101080.72;5110410;29;20119;-70
2022/12/24 06:10:23;;;;;;;28.60;10.02;;;;;;;8.11;100.00;101077.78;5110441;29;20031;-71
2022/12/24 06:12:54;;;;;;;35.05;11.32;;;;;;;8.21;100.00;101085.28;5109875;29;20082;-70
2022/12/24 06:15:25;;;;;;;22.10;8.02;;;;;;;8.28;100.00;101069.84;5110197;29;20433;-70
2022/12/24 06:17:55;;;;;;;30.10;10.25;;;;;;;8.30;100.00;101085.75;5109941;29;20079;-70
2022/12/24 06:20:26;;;;;;;14.75;8.50;;;;;;;8.18;100.00;101072.28;5109991;29;20115;-70
2022/12/24 06:22:56;;;;;;;19.15;8.77;;;;;;;8.35;100.00;101088.59;5109744;29;20035;-70
2022/12/24 06:25:26;;;;;;;15.68;8.90;;;;;;;8.29;100.00;101081.41;5093003;29;20396;-70
2022/12/24 06:27:57;;;;;;;22.45;8.75;;;;;;;8.31;100.00;101084.69;5110214;29;20032;-72
2022/12/24 06:30:27;;;;;;;29.38;10.00;;;;;;;8.29;100.00;101089.50;5110037;29;20440;-70
2022/12/24 06:32:57;;;;;;;32.10;11.30;;;;;;;8.31;100.00;101092.75;5109822;29;20111;-70
2022/12/24 06:35:30;;;;;;;18.00;9.32;;;;;;;8.41;100.00;101091.13;5110601;29;20111;-70
2022/12/24 06:38:01;;;;;;;25.00;9.50;;;;;;;8.46;100.00;101093.13;5110297;29;20030;-70
2022/12/24 06:40:31;;;;;;;26.08;7.43;;;;;;;8.48;100.00;101085.63;5093166;29;20055;-70
2022/12/24 06:43:01;;;;;;;50.67;10.18;;;;;;;8.48;100.00;101093.69;5109814;29;20034;-70
2022/12/24 06:45:32;;;;;;;17.55;6.97;;;;;;;8.42;100.00;101102.72;5110363;29;20468;-70
2022/12/24 06:48:03;;;;;;;11.43;6.53;;;;;;;8.40;100.00;101108.31;5110293;29;20094;-70
2022/12/24 06:50:34;;;;;;;17.15;7.80;;;;;;;8.40;100.00;101096.75;5109904;29;20463;-70
2022/12/24 06:53:04;;;;;;;21.80;7.65;;;;;;;8.33;100.00;101096.91;5109839;29;20055;-70
2022/12/24 06:55:35;;;;;;;17.17;7.30;;;;;;;8.36;100.00;101103.69;5109998;29;20031;-70
2022/12/24 06:58:05;;;;;;;20.95;9.23;;;;;;;8.37;100.00;101116.88;5093095;29;20032;-70
2022/12/24 07:00:37;;;;;;;17.98;7.85;;;;;;;8.38;100.00;101115.81;5110479;29;20023;-70
2022/12/24 07:03:07;;;;;;;29.38;9.90;;;;;;;8.45;100.00;101121.09;5109420;29;20074;-70
2022/12/24 07:05:39;;;;;;;34.08;8.98;;;;;;;8.48;100.00;101112.53;5108955;29;20101;-70
2022/12/24 07:08:10;;;;;;;33.97;10.20;;;;;;;8.51;100.00;101116.63;5106924;29;20034;-70
2022/12/24 07:10:40;;;;;;;18.85;8.60;;;;;;;8.42;100.00;101105.41;5107168;29;20083;-71
2022/12/24 07:13:10;;;;;;;14.25;7.05;;;;;;;8.49;100.00;101129.50;5106702;29;20182;-70
2022/12/24 07:15:41;;;;;;;27.05;9.25;;;;;;;8.42;100.00;101121.56;5106721;29;20061;-70
2022/12/24 07:18:11;;;;;;;21.50;9.35;;;;;;;8.39;100.00;101124.72;5107342;29;20019;-71
2022/12/24 07:20:42;;;;;;;27.92;9.55;;;;;;;8.29;100.00;101124.47;5107233;29;20030;-70
2022/12/24 07:23:12;;;;;;;15.77;6.93;;;;;;;8.35;100.00;101134.34;5106537;29;20493;-70
2022/12/24 07:25:42;;;;;;;16.25;9.02;;;;;;;8.29;100.00;101135.22;5106316;29;20468;-70
2022/12/24 07:28:13;;;;;;;27.08;9.77;;;;;;;8.16;100.00;101124.69;5089342;29;20122;-70
2022/12/24 07:30:43;;;;;;;12.43;7.72;;;;;;;8.05;100.00;101113.72;5106475;29;20054;-70
2022/12/24 07:33:14;;;;;;;23.30;8.30;;;;;;;8.14;100.00;101139.19;5105952;29;20031;-70
2022/12/24 07:35:44;;;;;;;24.45;9.98;;;;;;;8.19;100.00;101148.44;5106344;29;20058;-70
2022/12/24 07:38:14;;;;;;;30.02;9.95;;;;;;;8.22;100.00;101147.97;5106093;29;20020;-70
2022/12/24 07:40:45;;;;;;;26.60;10.82;;;;;;;8.25;100.00;101161.78;5106145;29;20035;-70
2022/12/24 07:43:15;;;;;;;16.30;9.00;;;;;;;8.30;100.00;101172.66;5105522;29;20031;-70
2022/12/24 07:45:46;;;;;;;25.55;11.63;;;;;;;8.36;100.00;101166.38;5105821;29;20107;-70
2022/12/24 07:48:16;;;;;;;21.08;9.07;;;;;;;8.36;100.00;101162.88;5088720;29;20067;-70
2022/12/24 07:50:48;;;;;;;24.92;8.70;;;;;;;8.33;100.00;101163.34;5106297;29;20052;-71
2022/12/24 07:53:19;;;;;;;29.48;10.00;;;;;;;8.25;100.00;101160.97;5105315;29;20050;-70
2022/12/24 07:55:50;;;;;;;28.80;9.75;;;;;;;8.27;100.00;101170.44;5105766;29;20027;-70
2022/12/24 07:58:21;;;;;;;38.63;10.45;;;;;;;8.23;100.00;101169.25;5105792;29;20035;-70
2022/12/24 08:00:56;;;;;;;17.48;8.00;;;;;;;8.23;100.00;101180.03;5105758;29;20062;-70
2022/12/24 08:03:27;;;;;;;29.73;9.27;;;;;;;8.23;100.00;101163.06;5105102;29;20503;-70
2022/12/24 08:05:58;;;;;;;39.53;10.48;;;;;;;8.30;100.00;101179.91;5088496;29;20027;-71
2022/12/24 08:08:28;;;;;;;21.05;10.43;;;;;;;8.16;100.00;101148.91;5088327;29;20110;-71
2022/12/24 08:11:01;;;;;;;25.55;9.82;;;;;;;8.34;100.00;101187.34;5105385;29;20412;-71
2022/12/24 08:13:32;;;;;;;29.73;9.90;;;;;;;8.37;100.00;101194.13;5105006;29;20091;-70
2022/12/24 08:16:03;;;;;;;20.60;10.00;;;;;;;8.36;100.00;101185.22;5104606;29;20024;-70
2022/12/24 08:18:34;;;;;;;21.33;9.30;;;;;;;8.36;100.00;101190.59;5104849;29;20564;-71
2022/12/24 08:21:07;;;;;;;28.70;9.10;;;;;;;8.29;100.00;101183.66;5105153;29;20110;-71
2022/12/24 08:23:37;;;;;;;20.85;9.30;;;;;;;8.38;100.00;101193.03;5104689;29;20396;-71
2022/12/24 08:26:09;;;;;;;22.77;10.27;;;;;;;8.26;100.00;101167.97;5087772;29;20019;-71
2022/12/24 08:28:40;;;;;;;12.77;8.50;;;;;;;8.45;100.00;101199.13;5105472;29;20031;-70
2022/12/24 08:31:10;;;;;;;25.50;10.40;;;;;;;8.49;100.00;101211.06;5104967;29;20547;-70
2022/12/24 08:33:40;;;;;;;21.73;10.27;;;;;;;8.49;100.00;101205.69;5104563;29;20102;-70
2022/12/24 08:36:11;;;;;;;27.73;10.50;;;;;;;8.39;100.00;101194.69;5105080;29;20035;-71
2022/12/24 08:38:41;;;;;;;24.92;9.77;;;;;;;8.43;100.00;101214.69;5103236;29;20407;-70
2022/12/24 08:41:12;;;;;;;18.90;9.63;;;;;;;8.42;100.00;101218.44;5110986;29;20110;-70
2022/12/24 08:43:42;;;;;;;23.13;9.68;;;;;;;8.43;100.00;101223.59;5104533;29;20034;-71
2022/12/24 08:46:12;;;;;;;31.17;11.82;;;;;;;8.44;100.00;101229.78;5104556;29;20103;-72
2022/12/24 08:48:43;;;;;;;16.35;8.68;;;;;;;8.46;100.00;101222.31;5104428;29;20511;-71
2022/12/24 08:51:13;;;;;;;30.65;9.52;;;;;;;8.29;100.00;101197.13;5104131;29;20038;-71
2022/12/24 08:53:44;;;;;;;21.63;10.10;;;;;;;8.44;100.00;101232.47;5103842;29;20549;-71
2022/12/24 08:56:15;;;;;;;27.80;9.52;;;;;;;8.40;100.00;101234.00;5104530;29;20468;-69
2022/12/24 08:58:47;;;;;;;18.52;8.40;;;;;;;8.45;100.00;101242.19;5104963;29;20043;-69
2022/12/24 09:01:19;;;;;;;23.25;8.52;;;;;;;8.57;100.00;101261.06;5104172;29;20023;-70
2022/12/24 09:03:49;;;;;;;21.25;8.68;;;;;;;8.60;100.00;101261.41;5103665;29;20031;-70
2022/12/24 09:06:20;;;;;;;20.98;9.70;;;;;;;8.63;100.00;101277.09;5101732;29;20067;-70
2022/12/24 09:08:51;;;;;;;44.80;10.15;;;;;;;8.67;100.00;101278.25;5104123;29;20024;-70
2022/12/24 09:11:21;;;;;;;15.70;9.13;;;;;;;8.68;100.00;101269.13;5104141;29;20105;-69
2022/12/24 09:13:53;;;;;;;25.90;9.82;;;;;;;8.64;100.00;101270.66;5103858;29;20392;-69
2022/12/24 09:16:23;;;;;;;20.95;8.63;;;;;;;8.60;100.00;101269.50;5103977;29;20544;-70
2022/12/24 09:18:55;;;;;;;38.50;8.90;;;;;;;8.62;100.00;101270.09;5087468;29;20035;-71
2022/12/24 09:21:25;;;;;;;17.58;9.82;;;;;;;8.67;100.00;101262.09;5104087;29;20118;-70
2022/12/24 09:23:56;;;;;;;11.93;9.63;;;;;;;8.77;100.00;101266.91;5087303;29;20453;-69
2022/12/24 09:26:28;;;;;;;27.50;9.82;;;;;;;8.77;100.00;101273.13;5086982;29;20511;-70
2022/12/24 09:29:01;;;;;;;15.88;10.27;;;;;;;8.82;100.00;101277.00;5103368;29;20429;-71
2022/12/24 09:31:32;;;;;;;19.98;9.38;;;;;;;8.77;100.00;101281.19;5104233;29;20440;-70
2022/12/24 09:34:02;;;;;;;13.32;8.35;;;;;;;8.74;100.00;101284.34;5103536;29;20082;-70
2022/12/24 09:36:33;;;;;;;16.40;8.15;;;;;;;8.77;100.00;101291.16;5103929;29;20028;-69
2022/12/24 09:39:04;;;;;;;13.00;9.52;;;;;;;8.90;100.00;101298.19;5103773;29;20035;-70
2022/12/24 09:41:43;;;;;;;20.90;9.13;;;;;;;8.98;100.00;101293.25;5103726;29;20034;-69
2022/12/24 09:44:32;;;;;;;33.65;11.27;;;;;;;9.05;100.00;101293.97;5103686;29;20042;-69
2022/12/24 09:47:10;;;;;;;21.10;8.95;;;;;;;9.12;100.00;101318.91;5103939;29;20031;-70
2022/12/24 09:49:45;;;;;;;25.20;9.35;;;;;;;9.16;100.00;101308.47;5112021;23;20040;-63
2022/12/24 09:52:40;;;;;;;17.38;10.15;;;;;;;9.24;100.00;101318.09;5102561;29;20086;-63
2022/12/24 09:55:34;;;;;;;24.33;10.70;;;;;;;9.28;100.00;101325.44;5103203;29;20059;-62
2022/12/24 09:58:09;;;;;;;18.80;8.05;;;;;;;9.29;100.00;101313.63;5102712;29;20050;-63
2022/12/24 10:00:40;;;;;;;23.27;7.85;;;;;;;9.39;100.00;101319.22;5103030;29;20392;-63
2022/12/24 10:03:15;;;;;;;44.53;11.25;;;;;;;9.26;100.00;101286.31;5102609;29;20087;-63
2022/12/24 10:06:04;;;;;;;24.27;10.63;;;;;;;9.55;100.00;101324.94;5101491;29;20038;-66
2022/12/24 10:08:56;;;;;;;29.38;10.30;;;;;;;9.63;100.00;101327.28;5102667;29;20083;-65
2022/12/24 10:11:51;;;;;;;26.65;8.82;;;;;;;9.70;100.00;101326.09;5103211;29;20039;-63
2022/12/24 10:14:46;;;;;;;25.45;11.98;;;;;;;9.77;100.00;101331.34;5091196;29;20499;-64
2022/12/24 10:17:43;;;;;;;26.02;11.82;;;;;;;9.72;100.00;101325.84;5070250;29;20035;-64
2022/12/24 10:20:41;;;;;;;23.98;9.45;;;;;;;9.68;100.00;101316.59;5080362;29;20235;-63
2022/12/24 10:23:18;;;;;;;18.88;8.50;;;;;;;9.71;100.00;101310.72;5081783;29;20024;-65
2022/12/24 10:26:17;;;;;;;16.98;8.98;;;;;;;9.67;100.00;101313.06;5082691;29;20020;-63
2022/12/24 10:28:51;;;;;;;22.07;9.17;;;;;;;9.64;100.00;101301.94;5083148;29;20387;-65
2022/12/24 10:31:25;;;;;;;19.70;7.28;;;;;;;9.47;100.00;101289.22;5083077;29;20035;-65
2022/12/24 10:34:00;;;;;;;17.30;7.95;;;;;;;9.75;100.00;101325.38;5065173;29;20517;-64
2022/12/24 10:36:31;;;;;;;34.33;10.25;;;;;;;9.80;100.00;101323.59;5082812;29;20065;-64
2022/12/24 10:39:01;;;;;;;15.73;6.70;;;;;;;9.83;100.00;101311.50;5082838;29;20100;-64
2022/12/24 10:41:35;;;;;;;15.68;7.68;;;;;;;9.81;100.00;101311.75;5092085;29;20095;-64
2022/12/24 10:44:05;;;;;;;19.05;11.35;;;;;;;9.90;100.00;101314.06;5105228;29;20571;-64
2022/12/24 10:46:38;;;;;;;13.70;9.48;;;;;;;10.03;100.00;101314.59;5107348;29;20128;-63
2022/12/24 10:49:28;;;;;;;26.00;11.38;;;;;;;10.08;100.00;101305.78;5107035;29;20032;-65
2022/12/24 10:52:05;;;;;;;20.05;8.85;;;;;;;10.07;100.00;101313.06;5106530;29;20032;-66
2022/12/24 10:54:38;;;;;;;14.07;7.80;;;;;;;10.10;100.00;101323.38;5103632;29;20028;-66
2022/12/24 10:57:24;;;;;;;23.35;10.10;;;;;;;10.21;100.00;101320.88;5106865;29;20032;-65
2022/12/24 10:59:55;;;;;;;24.45;10.02;;;;;;;10.26;100.00;101320.97;5107195;29;20413;-64
2022/12/24 11:02:36;;;;;;;17.00;8.85;;;;;;;10.34;100.00;101326.00;5105914;29;20036;-66
2022/12/24 11:05:27;;;;;;;21.05;9.13;;;;;;;10.56;100.00;101323.38;5106599;29;20040;-65
2022/12/24 11:08:03;;;;;;;17.35;7.93;;;;;;;10.79;100.00;101332.16;5106879;29;20465;-67
2022/12/24 11:10:41;;;;;;;19.15;8.32;;;;;;;11.04;100.00;101322.78;5106232;29;20030;-67
2022/12/24 11:13:25;;;;;;;15.93;8.65;;;;;;;11.11;100.00;101332.38;5104789;29;20404;-64
2022/12/24 11:16:23;;;;;;;17.58;8.77;;;;;;;11.10;100.00;101321.81;5106369;29;20675;-65
2022/12/24 11:18:56;;;;;;;18.45;8.48;;;;;;;11.18;100.00;101329.50;5106373;29;20059;-66
2022/12/24 11:21:39;;;;;;;20.50;7.50;;;;;;;10.97;100.00;101282.41;5105086;28;20316;-66
2022/12/24 11:24:12;;;;;;;21.42;8.88;;;;;;;11.28;100.00;101323.41;5104292;29;20388;-66
2022/12/24 11:26:43;;;;;;;19.95;7.30;;;;;;;11.17;100.00;101314.34;5105909;29;20016;-68
2022/12/24 11:29:20;;;;;;;20.05;9.43;;;;;;;11.29;100.00;101325.03;5106344;29;20487;-64
2022/12/24 11:31:51;;;;;;;24.40;8.05;;;;;;;10.64;100.00;101231.97;5105303;29;20031;-64
2022/12/24 11:34:32;;;;;;;12.40;8.57;;;;;;;11.32;100.00;101328.06;5088812;29;20031;-65
2022/12/24 11:37:29;;;;;;;27.55;9.65;;;;;;;11.48;100.00;101326.41;5105929;29;20024;-64
2022/12/24 11:40:01;;;;;;;7.43;5.57;;;;;;;11.64;100.00;101330.09;5103377;29;20039;-67
2022/12/24 11:42:41;;;;;;;26.02;8.52;;;;;;;11.66;100.00;101326.09;5105318;29;20443;-66
2022/12/24 11:45:26;;;;;;;15.38;8.10;;;;;;;11.64;100.00;101330.09;5088830;29;20027;-66
2022/12/24 11:47:57;;;;;;;17.70;8.20;;;;;;;11.51;100.00;101331.31;5105822;29;20400;-63
2022/12/24 11:50:34;;;;;;;15.25;7.30;;;;;;;11.54;100.00;101338.13;5105792;29;20024;-65